Time;durP1;ratioP1;P1;durP2;ratioP2;P2;SDS_P1;SDS_P2;PMS_P1;PMS_P2;Temp;Humidity;BMP_temperature;BMP_pressure;BME280_temperature;BME280_humidity;BME280_pressure;Samples;Min_cycle;Max_cycle;Signal;HPM_P1;HPM_P2
2022/09/22 00:00:31;;;;;;;17.52;7.40;;;;;;;;;;1719723;83;21888;-80
2022/09/22 00:02:58;;;;;;;29.57;8.73;;;;;;;;;;1719751;83;20799;-80
2022/09/22 00:05:24;;;;;;;18.50;8.53;;;;;;;;;;1828302;78;21065;-80
2022/09/22 00:07:52;;;;;;;17.05;8.10;;;;;;;;;;1840740;78;21471;-80
2022/09/22 00:10:20;;;;;;;20.27;8.40;;;;;;;;;;1840720;77;20975;-80
2022/09/22 00:12:49;;;;;;;21.07;7.65;;;;;;;;;;1840639;77;21147;-80
2022/09/22 00:15:16;;;;;;;17.98;8.40;;;;;;;;;;1840858;77;20995;-80
2022/09/22 00:17:43;;;;;;;22.87;8.33;;;;;;;;;;1840948;78;22470;-80
2022/09/22 00:20:11;;;;;;;22.80;9.03;;;;;;;;;;1840978;77;20999;-80
2022/09/22 00:22:37;;;;;;;19.65;9.30;;;;;;;;;;1840658;77;20976;-79
2022/09/22 00:25:03;;;;;;;27.32;9.73;;;;;;;;;;1840985;78;21396;-80
2022/09/22 00:27:29;;;;;;;26.68;8.95;;;;;;;;;;1840793;78;20964;-80
2022/09/22 00:29:54;;;;;;;17.00;7.90;;;;;;;;;;1841056;77;20865;-80
2022/09/22 00:32:20;;;;;;;19.17;7.72;;;;;;;;;;1841141;77;20900;-80
2022/09/22 00:34:46;;;;;;;18.90;7.35;;;;;;;;;;1841016;77;21104;-80
2022/09/22 00:37:12;;;;;;;16.82;7.47;;;;;;;;;;1841148;77;21071;-80
2022/09/22 00:39:37;;;;;;;18.00;8.18;;;;;;;;;;1843116;77;20998;-80
2022/09/22 00:42:04;;;;;;;17.65;7.30;;;;;;;;;;1842949;77;20845;-80
2022/09/22 00:44:33;;;;;;;28.32;10.82;;;;;;;;;;1843285;77;21019;-80
2022/09/22 00:47:05;;;;;;;19.23;8.43;;;;;;;;;;1842986;77;21011;-80
2022/09/22 00:49:56;;;;;;;26.23;9.43;;;;;;;;;;1843142;77;21926;-80
2022/09/22 00:52:31;;;;;;;23.62;10.10;;;;;;;;;;1763591;80;21574;-80
2022/09/22 00:55:00;;;;;;;26.52;10.80;;;;;;;;;;1687511;85;21019;-80
2022/09/22 00:57:29;;;;;;;22.02;9.08;;;;;;;;;;1687693;85;21590;-81
2022/09/22 00:59:55;;;;;;;19.98;9.00;;;;;;;;;;1687185;85;21069;-80
2022/09/22 01:02:21;;;;;;;17.75;7.58;;;;;;;;;;1687555;85;22053;-80
2022/09/22 01:04:50;;;;;;;16.70;7.65;;;;;;;;;;1687625;85;20920;-80
2022/09/22 01:07:16;;;;;;;15.88;7.12;;;;;;;;;;1687490;85;21744;-80
2022/09/22 01:09:42;;;;;;;15.05;7.00;;;;;;;;;;1687579;85;21034;-80
2022/09/22 01:12:07;;;;;;;20.97;7.25;;;;;;;;;;1687697;85;21010;-80
2022/09/22 01:14:55;;;;;;;14.38;7.12;;;;;;;;;;1687698;85;21686;-80
2022/09/22 01:17:37;;;;;;;17.15;7.15;;;;;;;;;;1687643;85;21047;-80
2022/09/22 01:20:23;;;;;;;13.13;6.83;;;;;;;;;;1687601;85;21104;-79
2022/09/22 01:23:04;;;;;;;12.73;6.67;;;;;;;;;;1687342;85;21675;-79
2022/09/22 01:25:59;;;;;;;15.28;6.03;;;;;;;;;;1658539;86;20963;-80
2022/09/22 01:28:40;;;;;;;11.95;6.03;;;;;;;;;;1670016;84;21069;-80
2022/09/22 01:31:37;;;;;;;17.40;6.67;;;;;;;;;;1702178;82;21018;-80
2022/09/22 01:34:12;;;;;;;13.75;5.97;;;;;;;;;;1713999;83;21517;-80
2022/09/22 01:36:45;;;;;;;16.12;6.67;;;;;;;;;;1710545;83;21065;-80
2022/09/22 01:39:23;;;;;;;24.12;7.78;;;;;;;;;;1720847;83;21014;-80
2022/09/22 01:41:57;;;;;;;17.87;7.03;;;;;;;;;;1721752;83;21157;-80
2022/09/22 01:44:29;;;;;;;15.43;6.75;;;;;;;;;;1704207;84;21073;-81
2022/09/22 01:46:58;;;;;;;14.65;6.72;;;;;;;;;;1704428;83;21605;-79
2022/09/22 01:49:26;;;;;;;18.10;7.58;;;;;;;;;;1704482;83;21088;-79
2022/09/22 01:51:55;;;;;;;21.68;7.22;;;;;;;;;;1704621;83;21151;-79
2022/09/22 01:54:25;;;;;;;14.70;6.78;;;;;;;;;;1704459;83;21072;-79
2022/09/22 01:56:54;;;;;;;19.73;7.20;;;;;;;;;;1704569;83;21020;-80
2022/09/22 01:59:23;;;;;;;18.60;6.90;;;;;;;;;;1704802;83;21087;-80
2022/09/22 02:01:52;;;;;;;17.62;6.53;;;;;;;;;;1733534;81;21000;-80
2022/09/22 02:04:24;;;;;;;20.65;7.70;;;;;;;;;;1751720;81;20988;-80
2022/09/22 02:06:53;;;;;;;21.00;8.23;;;;;;;;;;1751478;81;21248;-80
2022/09/22 02:09:21;;;;;;;21.33;7.62;;;;;;;;;;1727231;81;21002;-80
2022/09/22 02:11:47;;;;;;;15.93;6.17;;;;;;;;;;1711805;82;21113;-80
2022/09/22 02:14:13;;;;;;;15.68;7.22;;;;;;;;;;1711891;82;20967;-80
2022/09/22 02:16:39;;;;;;;21.30;7.60;;;;;;;;;;1688090;83;21014;-80
2022/09/22 02:19:11;;;;;;;18.75;7.33;;;;;;;;;;1688010;82;21223;-80
2022/09/22 02:21:39;;;;;;;19.32;7.35;;;;;;;;;;1712316;82;20994;-80
2022/09/22 02:24:05;;;;;;;21.68;9.05;;;;;;;;;;1711706;82;21041;-80
2022/09/22 02:26:33;;;;;;;16.82;6.92;;;;;;;;;;1711642;82;21053;-80
2022/09/22 02:29:03;;;;;;;20.00;6.97;;;;;;;;;;1712025;82;21038;-80
2022/09/22 02:31:31;;;;;;;14.50;7.03;;;;;;;;;;1711785;82;21938;-80
2022/09/22 02:33:57;;;;;;;17.12;6.55;;;;;;;;;;1718022;82;21102;-80
2022/09/22 02:36:55;;;;;;;17.02;7.17;;;;;;;;;;1739437;81;20910;-80
2022/09/22 02:39:30;;;;;;;12.43;5.67;;;;;;;;;;1691751;83;21028;-79
2022/09/22 02:42:05;;;;;;;19.12;6.55;;;;;;;;;;1732740;82;21089;-80
2022/09/22 02:44:37;;;;;;;14.70;7.40;;;;;;;;;;1708894;84;21078;-79
2022/09/22 02:47:06;;;;;;;16.55;7.00;;;;;;;;;;1704790;84;21041;-80
2022/09/22 02:49:33;;;;;;;19.27;7.05;;;;;;;;;;1708794;84;21608;-80
2022/09/22 02:51:58;;;;;;;13.28;6.15;;;;;;;;;;1708574;84;21061;-79
2022/09/22 02:54:24;;;;;;;15.75;7.10;;;;;;;;;;1708633;84;21009;-79
2022/09/22 02:56:50;;;;;;;22.35;10.80;;;;;;;;;;1708728;84;21140;-80
2022/09/22 02:59:16;;;;;;;19.75;9.28;;;;;;;;;;1676836;85;20849;-79
2022/09/22 03:01:41;;;;;;;16.35;7.65;;;;;;;;;;1746410;82;20955;-80
2022/09/22 03:04:07;;;;;;;24.02;9.33;;;;;;;;;;1746765;81;20998;-80
2022/09/22 03:06:33;;;;;;;25.77;10.53;;;;;;;;;;1746651;82;20896;-79
2022/09/22 03:08:59;;;;;;;20.08;8.40;;;;;;;;;;1746602;82;21110;-79
2022/09/22 03:11:26;;;;;;;19.82;8.58;;;;;;;;;;1746627;81;21104;-79
2022/09/22 03:13:52;;;;;;;26.93;10.15;;;;;;;;;;1765104;79;21522;-79
2022/09/22 03:16:18;;;;;;;22.58;9.68;;;;;;;;;;1796577;79;21042;-80
2022/09/22 03:18:44;;;;;;;19.55;8.73;;;;;;;;;;1796859;79;21061;-79
2022/09/22 03:21:10;;;;;;;20.50;7.85;;;;;;;;;;1796645;79;21045;-79
2022/09/22 03:23:35;;;;;;;21.35;8.98;;;;;;;;;;1796688;79;20872;-79
2022/09/22 03:26:01;;;;;;;20.25;8.65;;;;;;;;;;1796763;79;20805;-79
2022/09/22 03:28:27;;;;;;;22.55;7.35;;;;;;;;;;1796767;79;20891;-79
2022/09/22 03:30:52;;;;;;;19.75;8.40;;;;;;;;;;1796628;79;20928;-79
2022/09/22 03:33:18;;;;;;;19.37;7.65;;;;;;;;;;1796708;79;21173;-79
2022/09/22 03:35:44;;;;;;;19.02;7.45;;;;;;;;;;1796675;79;20899;-79
2022/09/22 03:38:10;;;;;;;20.17;7.30;;;;;;;;;;1808382;77;20963;-80
2022/09/22 03:40:36;;;;;;;15.60;6.55;;;;;;;;;;1814697;77;20853;-80
2022/09/22 03:43:02;;;;;;;18.12;7.90;;;;;;;;;;1843098;77;20983;-80
2022/09/22 03:45:27;;;;;;;17.45;7.22;;;;;;;;;;1842861;77;21142;-80
2022/09/22 03:47:53;;;;;;;18.95;7.80;;;;;;;;;;1843312;77;20955;-79
2022/09/22 03:50:20;;;;;;;16.93;7.10;;;;;;;;;;1843111;77;21578;-79
2022/09/22 03:52:45;;;;;;;19.60;7.70;;;;;;;;;;1843196;77;21016;-79
2022/09/22 03:57:04;;;;;;;18.15;7.03;;;;;;;4.81;100.00;100795.05;1880651;74;22579;-80
2022/09/22 03:59:31;;;;;;;19.98;7.60;;;;;;;4.85;100.00;100796.23;1861735;77;20984;-80
2022/09/22 04:01:57;;;;;;;21.35;6.80;;;;;;;4.94;100.00;100795.78;1861950;77;21942;-80
2022/09/22 04:04:23;;;;;;;15.32;7.20;;;;;;;5.05;100.00;100792.89;1857508;76;21081;-81
2022/09/22 04:06:49;;;;;;;16.62;7.10;;;;;;;5.13;100.00;100790.48;1834671;78;20958;-81
2022/09/22 04:09:17;;;;;;;17.60;6.33;;;;;;;5.22;100.00;100795.31;1834719;78;21073;-80
2022/09/22 04:11:43;;;;;;;20.55;7.30;;;;;;;5.32;100.00;100793.47;1834386;78;21534;-80
2022/09/22 04:14:10;;;;;;;23.35;8.08;;;;;;;5.46;100.00;100790.98;1835055;78;21027;-80
2022/09/22 04:16:36;;;;;;;16.93;6.80;;;;;;;5.59;100.00;100790.04;1841468;75;20958;-80
2022/09/22 04:19:03;;;;;;;15.58;6.10;;;;;;;5.89;100.00;100790.11;1859717;77;21519;-81
2022/09/22 04:21:31;;;;;;;15.55;6.70;;;;;;;6.88;100.00;100795.69;1859337;77;21162;-82
2022/09/22 04:23:57;;;;;;;17.45;7.55;;;;;;;8.21;100.00;100788.70;1859725;77;21029;-81
2022/09/22 04:26:23;;;;;;;19.40;7.45;;;;;;;9.40;100.00;100785.08;1859611;77;21561;-81
2022/09/22 04:28:49;;;;;;;22.55;7.70;;;;;;;10.62;100.00;100783.61;1833810;77;20964;-82
2022/09/22 04:31:15;;;;;;;23.52;7.47;;;;;;;11.79;100.00;100779.54;1825886;78;21658;-81
2022/09/22 04:33:41;;;;;;;21.97;7.45;;;;;;;12.80;100.00;100786.88;1794174;78;20855;-81
2022/09/22 04:36:07;;;;;;;18.82;6.65;;;;;;;13.09;100.00;100790.66;1825882;78;21037;-81
2022/09/22 04:38:33;;;;;;;16.45;6.50;;;;;;;12.79;100.00;100792.00;1825917;78;21061;-81
2022/09/22 04:41:00;;;;;;;17.30;6.62;;;;;;;13.07;100.00;100790.66;1825979;78;21022;-81
2022/09/22 04:43:26;;;;;;;17.80;7.00;;;;;;;13.85;100.00;100789.72;1835146;77;21035;-81
2022/09/22 04:45:52;;;;;;;16.85;6.55;;;;;;;14.88;100.00;100785.06;1848610;75;21565;-81
2022/09/22 04:48:19;;;;;;;19.45;7.03;;;;;;;16.05;100.00;100792.02;1844165;77;21082;-81
2022/09/22 04:50:45;;;;;;;17.15;6.83;;;;;;;17.21;100.00;100792.50;1855412;77;21088;-81
2022/09/22 04:53:11;;;;;;;15.68;6.12;;;;;;;18.31;100.00;100795.23;1821247;77;21536;-81
2022/09/22 04:55:38;;;;;;;9.70;5.50;;;;;;;19.26;100.00;100791.62;1856018;77;20963;-81
2022/09/22 04:58:06;;;;;;;9.48;5.78;;;;;;;20.31;100.00;100792.80;1849803;77;21055;-78
2022/09/22 05:00:33;;;;;;;14.98;6.15;;;;;;;21.12;100.00;100797.63;1855132;75;21092;-79
2022/09/22 05:03:00;;;;;;;14.93;6.20;;;;;;;22.03;100.00;100807.86;1863579;75;21229;-79
2022/09/22 05:05:27;;;;;;;13.70;6.78;;;;;;;22.55;100.00;100813.00;1856327;75;21581;-79
2022/09/22 05:07:53;;;;;;;12.60;6.50;;;;;;;23.15;100.00;100810.06;1836651;75;21002;-78
2022/09/22 05:10:23;;;;;;;21.15;7.08;;;;;;;24.01;95.18;100811.79;1801920;75;21524;-79
2022/09/22 05:12:50;;;;;;;16.73;7.25;;;;;;;24.81;85.26;100814.95;1849754;75;21017;-79
2022/09/22 05:15:17;;;;;;;9.98;6.55;;;;;;;25.27;78.50;100820.39;1805213;77;21755;-78
2022/09/22 05:17:48;;;;;;;15.83;7.35;;;;;;;25.48;72.29;100815.20;1840082;77;21079;-78
2022/09/22 05:20:15;;;;;;;15.00;6.95;;;;;;;25.28;69.39;100812.91;1843019;77;21021;-78
2022/09/22 05:22:42;;;;;;;19.30;7.12;;;;;;;24.52;66.00;100815.51;1852613;75;21056;-78
2022/09/22 05:25:15;;;;;;;19.98;7.55;;;;;;;23.73;66.79;100817.17;1851945;75;20998;-78
2022/09/22 05:27:50;;;;;;;16.52;8.33;;;;;;;23.02;67.09;100822.40;1835546;77;21083;-78
2022/09/22 05:30:17;;;;;;;21.23;8.38;;;;;;;22.28;69.40;100830.02;1861756;77;20994;-77
2022/09/22 05:32:46;;;;;;;26.70;9.20;;;;;;;21.69;71.33;100823.34;1842825;75;21033;-77
2022/09/22 05:35:14;;;;;;;16.85;9.18;;;;;;;21.19;73.83;100822.59;1828156;78;21114;-78
2022/09/22 05:37:42;;;;;;;19.17;8.98;;;;;;;20.94;77.24;100823.43;1861481;77;21132;-78
2022/09/22 05:40:10;;;;;;;19.02;9.35;;;;;;;20.79;78.57;100822.80;1862042;77;21053;-78
2022/09/22 05:42:46;;;;;;;21.17;9.35;;;;;;;20.53;80.04;100820.61;1861744;77;20998;-78
2022/09/22 05:45:13;;;;;;;25.05;10.45;;;;;;;20.37;84.37;100828.47;1858805;77;20999;-78
2022/09/22 05:47:40;;;;;;;32.65;11.53;;;;;;;20.00;89.47;100827.09;1828484;77;21621;-78
2022/09/22 05:50:09;;;;;;;27.30;10.98;;;;;;;19.63;91.74;100825.09;1798847;78;21010;-78
2022/09/22 05:52:35;;;;;;;25.85;10.93;;;;;;;19.58;97.62;100825.23;1839032;75;21252;-79
2022/09/22 05:55:02;;;;;;;26.75;11.88;;;;;;;19.66;100.00;100821.77;1830748;75;20994;-79
2022/09/22 05:57:30;;;;;;;28.20;11.65;;;;;;;19.85;98.54;100822.30;1853199;75;21506;-78
2022/09/22 05:59:57;;;;;;;33.35;11.80;;;;;;;19.66;99.26;100818.46;1858615;77;21074;-79
2022/09/22 06:02:23;;;;;;;29.15;11.95;;;;;;;19.55;100.00;100819.02;1798296;75;21049;-79
2022/09/22 06:04:50;;;;;;;25.30;11.10;;;;;;;19.78;100.00;100815.12;1851112;75;21129;-78
2022/09/22 06:07:22;;;;;;;27.50;11.22;;;;;;;19.73;100.00;100807.86;1849298;75;22353;-80
2022/09/22 06:09:50;;;;;;;29.85;11.70;;;;;;;19.57;100.00;100815.42;1842583;75;20995;-78
2022/09/22 06:12:17;;;;;;;34.58;11.78;;;;;;;19.32;100.00;100820.42;1846904;75;21415;-81
2022/09/22 06:14:50;;;;;;;31.93;13.70;;;;;;;18.84;100.00;100818.34;1850656;75;21517;-79
2022/09/22 06:17:16;;;;;;;26.85;11.38;;;;;;;18.28;100.00;100820.41;1870011;75;21210;-79
2022/09/22 06:19:49;;;;;;;28.87;11.83;;;;;;;17.80;100.00;100836.41;1885675;75;20994;-79
2022/09/22 06:22:10;;;;;;;29.55;11.83;;;;;;;17.47;100.00;100843.23;1839169;77;21039;-79
2022/09/22 06:24:36;;;;;;;34.70;13.20;;;;;;;17.16;100.00;100839.68;1824695;77;21067;-79
2022/09/22 06:27:03;;;;;;;36.13;12.43;;;;;;;16.93;100.00;100841.97;1825238;75;21146;-80
2022/09/22 06:29:29;;;;;;;38.70;14.28;;;;;;;16.78;100.00;100843.81;1855261;76;21135;-79
2022/09/22 06:31:55;;;;;;;34.63;13.25;;;;;;;16.59;100.00;100847.08;1858238;77;21026;-79
2022/09/22 06:34:22;;;;;;;32.08;13.75;;;;;;;16.30;100.00;100847.20;1838163;75;21523;-79
2022/09/22 06:36:49;;;;;;;36.80;14.38;;;;;;;16.05;100.00;100843.67;1845637;77;21038;-78
2022/09/22 06:39:15;;;;;;;37.78;15.72;;;;;;;15.84;100.00;100853.97;1851168;75;21554;-79
2022/09/22 06:41:43;;;;;;;39.20;14.55;;;;;;;15.73;100.00;100855.17;1846314;75;21000;-82
2022/09/22 06:44:09;;;;;;;36.25;13.40;;;;;;;15.64;100.00;100854.16;1859438;75;21089;-83
2022/09/22 06:46:36;;;;;;;34.73;14.33;;;;;;;15.50;100.00;100854.03;1854086;75;21098;-83
2022/09/22 06:49:03;;;;;;;32.17;12.93;;;;;;;15.43;100.00;100849.47;1858343;75;21024;-83
2022/09/22 06:51:32;;;;;;;29.77;10.95;;;;;;;15.50;100.00;100851.32;1856809;75;21545;-83
2022/09/22 06:54:03;;;;;;;25.40;11.12;;;;;;;15.45;100.00;100848.64;1834139;77;21209;-83
2022/09/22 06:56:38;;;;;;;28.20;12.15;;;;;;;15.42;100.00;100843.79;1824811;78;20967;-83
2022/09/22 06:59:09;;;;;;;29.20;11.80;;;;;;;15.48;100.00;100853.50;1824427;78;21774;-83
2022/09/22 07:01:32;;;;;;;33.92;13.20;;;;;;;15.48;100.00;100855.41;1820028;78;21010;-82
2022/09/22 07:03:58;;;;;;;32.93;11.73;;;;;;;15.29;100.00;100850.67;1825180;78;21033;-83
2022/09/22 07:06:25;;;;;;;33.45;12.75;;;;;;;15.10;100.00;100847.86;1839346;75;21184;-83
2022/09/22 07:08:54;;;;;;;29.92;12.05;;;;;;;15.32;100.00;100846.58;1858808;75;21494;-83
2022/09/22 07:13:57;;;;;;;28.35;13.03;;;;;;;15.74;100.00;100845.95;1679985;84;21051;-83
2022/09/22 07:16:25;;;;;;;30.05;12.60;;;;;;;15.78;100.00;100848.33;1655394;85;21080;-82
2022/09/22 07:18:55;;;;;;;23.32;11.65;;;;;;;15.73;100.00;100847.02;1656163;86;21267;-82
2022/09/22 07:24:00;;;;;;;30.95;14.40;;;;;;;15.74;100.00;100854.09;1599866;88;21219;-81
2022/09/22 07:26:31;;;;;;;31.02;12.40;;;;;;;15.69;100.00;100853.34;1600174;89;21260;-81
2022/09/22 07:29:04;;;;;;;26.97;11.75;;;;;;;15.80;100.00;100854.86;1600359;88;21114;-82
2022/09/22 07:31:33;;;;;;;22.82;11.30;;;;;;;16.27;100.00;100851.86;1601000;88;21958;-83
2022/09/22 07:34:00;;;;;;;23.47;11.50;;;;;;;16.80;100.00;100865.31;1598970;89;21102;-81
2022/09/22 07:36:30;;;;;;;30.50;12.73;;;;;;;17.01;100.00;100858.44;1601736;89;21566;-80
2022/09/22 07:39:03;;;;;;;30.62;12.98;;;;;;;17.12;100.00;100855.54;1601238;88;21096;-82
2022/09/22 07:41:32;;;;;;;26.02;12.18;;;;;;;17.18;100.00;100856.55;1600615;89;21083;-83
2022/09/22 07:46:45;;;;;;;27.32;12.23;;;;;;;17.95;100.00;100853.02;1601738;88;21566;-83
2022/09/22 07:49:11;;;;;;;30.57;13.40;;;;;;;18.14;100.00;100854.52;1601573;89;21100;-84
2022/09/22 07:51:37;;;;;;;30.43;12.75;;;;;;;18.24;100.00;100857.61;1602022;89;21029;-83
2022/09/22 07:54:06;;;;;;;29.72;13.70;;;;;;;18.41;100.00;100850.13;1602334;88;21150;-83
2022/09/22 07:56:39;;;;;;;26.40;13.28;;;;;;;19.36;100.00;100843.86;1623528;88;21163;-81
2022/09/22 07:59:11;;;;;;;34.48;14.03;;;;;;;20.00;100.00;100848.45;1567778;91;21186;-81
2022/09/22 08:01:43;;;;;;;30.00;14.07;;;;;;;20.19;100.00;100843.48;1567715;91;21099;-82
2022/09/22 08:04:14;;;;;;;29.45;13.03;;;;;;;20.31;100.00;100840.70;1567635;90;21143;-81
2022/09/22 08:06:35;;;;;;;29.98;13.62;;;;;;;20.20;100.00;100836.08;1566563;90;21090;-82
2022/09/22 08:09:02;;;;;;;27.40;13.72;;;;;;;20.43;100.00;100832.66;1568134;91;21159;-81
2022/09/22 08:11:31;;;;;;;25.00;12.82;;;;;;;21.12;100.00;100825.58;1591205;88;21044;-82
2022/09/22 08:14:01;;;;;;;32.78;15.15;;;;;;;21.05;100.00;100819.23;1615944;86;21095;-82
2022/09/22 08:16:34;;;;;;;34.95;15.28;;;;;;;20.75;100.00;100821.04;1555116;92;21143;-82
2022/09/22 08:19:11;;;;;;;33.48;15.80;;;;;;;20.86;100.00;100829.17;1524904;93;21108;-82
2022/09/22 08:21:40;;;;;;;31.37;16.00;;;;;;;21.16;100.00;100816.39;1429842;100;21170;-82
2022/09/22 08:24:09;;;;;;;31.12;15.43;;;;;;;21.26;100.00;100809.75;1430676;100;21114;-82
2022/09/22 08:26:38;;;;;;;37.25;16.17;;;;;;;21.29;100.00;100819.48;1430615;100;21133;-82
2022/09/22 08:29:06;;;;;;;30.52;14.95;;;;;;;21.27;100.00;100827.25;1430568;100;21614;-81
2022/09/22 08:31:34;;;;;;;32.13;15.48;;;;;;;21.49;100.00;100821.33;1435271;99;21129;-82
2022/09/22 08:34:01;;;;;;;24.95;12.20;;;;;;;21.77;100.00;100821.14;1430605;100;21207;-82
2022/09/22 08:36:27;;;;;;;20.25;10.68;;;;;;;21.88;99.02;100816.06;1436593;98;21736;-83
2022/09/22 08:38:57;;;;;;;16.80;10.65;;;;;;;22.30;100.00;100816.19;1420457;101;21135;-82
2022/09/22 08:41:56;;;;;;;16.07;9.25;;;;;;;23.53;100.00;100805.11;1352966;104;21296;-83
2022/09/22 08:44:31;;;;;;;15.08;8.83;;;;;;;25.03;90.58;100805.30;1370809;104;21182;-82
2022/09/22 08:47:00;;;;;;;13.10;8.08;;;;;;;26.68;80.36;100800.42;1388598;103;21311;-82
2022/09/22 08:52:47;;;;;;;9.18;6.53;;;;;;;28.04;65.68;100793.91;1362895;104;21209;-82
2022/09/22 08:55:21;;;;;;;10.53;7.60;;;;;;;29.09;60.68;100785.73;1352427;104;21167;-82
2022/09/22 08:58:23;;;;;;;10.98;7.00;;;;;;;29.58;56.78;100784.55;1323155;107;21224;-82
2022/09/22 09:01:04;;;;;;;11.43;7.65;;;;;;;30.09;53.77;100777.36;1323771;107;21182;-83
2022/09/22 09:03:50;;;;;;;7.53;5.80;;;;;;;30.66;51.06;100776.26;1294570;109;21743;-82
2022/09/22 09:06:46;;;;;;;8.20;5.97;;;;;;;31.06;47.14;100774.97;1291723;109;21205;-82
2022/09/22 09:09:18;;;;;;;8.33;6.08;;;;;;;30.63;45.59;100773.47;1296524;109;21193;-82
2022/09/22 09:12:10;;;;;;;8.53;6.22;;;;;;;30.15;45.76;100772.23;1293355;110;27136;-83
2022/09/22 09:15:05;;;;;;;10.25;5.90;;;;;;;29.98;44.33;100768.98;1295310;107;21254;-82
2022/09/22 09:17:36;;;;;;;6.83;4.97;;;;;;;30.40;43.93;100769.02;1293268;111;21097;-82
2022/09/22 09:20:23;;;;;;;9.60;4.28;;;;;;;30.13;43.55;100769.86;1292360;111;21209;-82
2022/09/22 09:22:55;;;;;;;6.58;4.05;;;;;;;30.26;44.21;100769.73;1336615;105;21137;-81
2022/09/22 09:25:40;;;;;;;5.92;3.85;;;;;;;30.26;42.59;100772.52;1361971;104;21231;-82
2022/09/22 09:28:24;;;;;;;4.55;3.33;;;;;;;29.22;41.40;100768.19;1372699;104;21638;-82
2022/09/22 09:30:53;;;;;;;7.20;3.60;;;;;;;28.43;44.02;100767.92;1387763;103;21111;-81
2022/09/22 09:33:31;;;;;;;4.55;3.40;;;;;;;28.83;45.61;100760.86;1390087;103;21162;-82
2022/09/22 09:35:58;;;;;;;4.22;3.05;;;;;;;29.14;44.89;100763.16;1390584;103;21168;-82
2022/09/22 09:38:38;;;;;;;3.30;2.85;;;;;;;28.60;43.77;100766.54;1390902;103;21138;-81
2022/09/22 09:41:16;;;;;;;3.37;3.08;;;;;;;27.96;44.29;100776.97;1390595;101;22159;-81
2022/09/22 09:43:44;;;;;;;4.20;3.12;;;;;;;27.50;44.01;100771.51;1380429;103;21228;-82
2022/09/22 09:46:33;;;;;;;3.80;3.00;;;;;;;27.47;45.36;100768.06;1385439;102;21138;-82
2022/09/22 09:49:22;;;;;;;4.70;3.10;;;;;;;27.69;46.65;100764.27;1383659;102;21119;-81
2022/09/22 09:51:58;;;;;;;3.70;2.90;;;;;;;27.55;45.47;100762.07;1394711;100;21177;-82
2022/09/22 09:54:26;;;;;;;4.33;2.98;;;;;;;27.10;47.05;100770.00;1425156;95;21247;-82
2022/09/22 09:57:17;;;;;;;4.00;2.95;;;;;;;26.69;45.81;100779.89;1500859;94;21083;-81
2022/09/22 10:02:36;;;;;;;3.70;3.00;;;;;;;24.18;47.29;100780.45;1516196;94;21602;-82
2022/09/22 10:05:16;;;;;;;4.47;3.12;;;;;;;23.33;49.04;100778.50;1516523;94;21112;-81
2022/09/22 10:07:48;;;;;;;5.75;3.33;;;;;;;23.04;51.73;100771.22;1519182;94;21622;-81
2022/09/22 10:10:35;;;;;;;5.47;3.37;;;;;;;22.38;53.14;100770.02;1522583;94;21067;-80
2022/09/22 10:13:09;;;;;;;3.80;2.90;;;;;;;21.69;55.92;100774.55;1522443;94;21126;-81
2022/09/22 10:15:39;;;;;;;5.45;3.27;;;;;;;21.35;57.95;100766.66;1522520;94;21564;-81
2022/09/22 10:18:16;;;;;;;6.45;3.60;;;;;;;21.02;59.19;100765.87;1492995;96;21202;-81
2022/09/22 10:20:43;;;;;;;6.75;3.50;;;;;;;20.79;62.75;100768.58;1443094;99;21883;-81
2022/09/22 10:23:21;;;;;;;5.83;3.25;;;;;;;20.66;64.14;100775.84;1444480;99;21145;-81
2022/09/22 10:25:49;;;;;;;4.20;2.92;;;;;;;20.47;66.81;100770.69;1444377;99;21191;-80
2022/09/22 10:28:21;;;;;;;6.05;3.12;;;;;;;20.18;70.26;100771.30;1444459;99;22458;-80
2022/09/22 10:31:04;;;;;;;5.62;3.02;;;;;;;19.91;70.26;100770.99;1446111;97;21210;-81
2022/09/22 10:33:32;;;;;;;4.85;2.80;;;;;;;19.63;72.92;100773.15;1457961;98;21136;-81
2022/09/22 10:36:10;;;;;;;6.03;2.83;;;;;;;19.44;74.46;100778.84;1457876;98;21227;-81
2022/09/22 10:38:41;;;;;;;4.55;2.80;;;;;;;19.47;74.92;100772.75;1458096;98;21214;-81
2022/09/22 10:41:22;;;;;;;3.92;2.52;;;;;;;19.55;72.63;100774.71;1458072;98;21095;-81
2022/09/22 10:44:09;;;;;;;6.22;3.50;;;;;;;19.67;74.18;100772.21;1457833;97;21121;-81
2022/09/22 10:46:58;;;;;;;6.20;3.25;;;;;;;19.79;79.45;100766.13;1460323;97;21338;-81
2022/09/22 10:49:42;;;;;;;8.78;3.17;;;;;;;20.19;79.52;100758.66;1476952;95;21597;-81
2022/09/22 10:52:25;;;;;;;4.30;2.80;;;;;;;20.58;80.47;100760.22;1478970;95;21135;-81
2022/09/22 10:55:17;;;;;;;4.90;2.85;;;;;;;21.01;77.62;100751.95;1517484;94;21937;-80
2022/09/22 10:58:03;;;;;;;5.72;3.05;;;;;;;21.27;75.61;100745.59;1552547;87;21037;-81
2022/09/22 11:00:33;;;;;;;5.20;2.92;;;;;;;21.54;71.14;100747.91;1669780;85;21921;-80
2022/09/22 11:03:49;;;;;;;4.47;2.90;;;;;;;21.27;68.76;100746.39;1652378;85;21045;-81
2022/09/22 11:13:06;;;;;;;3.67;2.62;;;;;;;20.50;73.37;100739.92;1664083;86;21094;-80
2022/09/22 11:15:46;;;;;;;4.08;2.65;;;;;;;20.41;72.43;100734.98;1638769;86;21180;-80
2022/09/22 11:18:44;;;;;;;5.87;2.50;;;;;;;20.43;78.13;100734.91;1662857;86;21022;-81
2022/09/22 11:21:33;;;;;;;5.35;2.80;;;;;;;20.78;78.23;100727.26;1660815;86;21178;-81
2022/09/22 11:24:13;;;;;;;3.35;2.45;;;;;;;20.91;74.36;100720.77;1619574;87;21064;-80
2022/09/22 11:26:54;;;;;;;4.53;2.58;;;;;;;21.16;74.76;100723.77;1567821;89;21075;-80
2022/09/22 11:29:44;;;;;;;4.87;2.60;;;;;;;21.45;71.61;100717.56;1474951;95;21121;-80
2022/09/22 11:32:53;;;;;;;4.03;2.50;;;;;;;21.71;72.20;100714.11;1480982;95;21138;-81
2022/09/22 11:35:47;;;;;;;5.25;2.80;;;;;;;21.76;66.13;100716.63;1481242;96;21801;-80
2022/09/22 11:38:24;;;;;;;5.75;2.52;;;;;;;21.94;68.26;100714.61;1499824;95;21180;-80
2022/09/22 11:41:12;;;;;;;3.90;2.20;;;;;;;22.06;63.13;100713.88;1499622;94;21082;-80
2022/09/22 11:43:59;;;;;;;8.93;3.33;;;;;;;22.11;62.52;100709.53;1499184;94;21041;-81
2022/09/22 11:46:53;;;;;;;4.28;2.30;;;;;;;21.99;60.74;100717.70;1500399;94;21149;-80
2022/09/22 11:49:53;;;;;;;5.42;2.65;;;;;;;21.67;60.51;100713.72;1483999;95;21620;-81
2022/09/22 11:52:34;;;;;;;5.53;3.17;;;;;;;21.55;60.17;100712.48;1485438;94;21116;-80
2022/09/22 11:55:34;;;;;;;5.55;2.20;;;;;;;21.39;61.08;100718.87;1510071;93;21155;-81
2022/09/22 11:58:13;;;;;;;5.92;2.62;;;;;;;21.25;62.32;100721.80;1513540;93;22007;-80
2022/09/22 12:01:07;;;;;;;4.20;2.65;;;;;;;21.08;62.32;100716.61;1496936;93;21120;-80
2022/09/22 12:04:13;;;;;;;5.40;2.87;;;;;;;20.96;61.79;100715.69;1496404;95;21159;-81
2022/09/22 12:06:44;;;;;;;4.65;2.83;;;;;;;20.74;62.00;100708.51;1498410;95;21148;-81
2022/09/22 12:09:30;;;;;;;5.90;2.92;;;;;;;20.70;63.07;100713.81;1506636;95;21172;-81
2022/09/22 12:11:57;;;;;;;5.05;2.58;;;;;;;20.81;65.50;100716.45;1503698;93;21167;-82
2022/09/22 12:14:26;;;;;;;3.77;2.22;;;;;;;21.06;66.32;100711.21;1507312;93;21647;-82
2022/09/22 12:17:17;;;;;;;3.55;2.17;;;;;;;21.14;63.02;100714.50;1526030;92;21216;-81
2022/09/22 12:19:58;;;;;;;6.50;2.52;;;;;;;20.93;60.92;100710.86;1552921;92;21100;-81
2022/09/22 12:22:51;;;;;;;2.45;2.08;;;;;;;20.66;60.39;100713.43;1536290;93;21129;-80
2022/09/22 12:25:51;;;;;;;7.13;2.20;;;;;;;20.33;61.21;100720.19;1548886;89;21162;-82
2022/09/22 12:28:27;;;;;;;3.45;2.25;;;;;;;19.89;61.27;100729.50;1561562;91;21800;-81
2022/09/22 12:31:06;;;;;;;3.92;2.60;;;;;;;19.70;63.39;100737.96;1584370;88;21058;-80
2022/09/22 12:33:36;;;;;;;3.95;2.47;;;;;;;19.52;63.75;100733.78;1515952;93;21134;-80
2022/09/22 12:36:03;;;;;;;4.20;2.70;;;;;;;19.37;63.89;100721.91;1517075;93;21069;-80
2022/09/22 12:38:30;;;;;;;3.42;2.22;;;;;;;19.21;64.69;100720.73;1531205;92;21934;-80
2022/09/22 12:41:01;;;;;;;4.60;2.50;;;;;;;19.20;66.20;100721.27;1553740;90;21037;-81
2022/09/22 12:43:28;;;;;;;4.62;2.52;;;;;;;19.17;66.70;100719.16;1565919;91;21138;-81
2022/09/22 12:46:01;;;;;;;3.87;2.27;;;;;;;19.14;70.28;100725.27;1549676;92;21167;-80
2022/09/22 12:48:38;;;;;;;5.05;2.60;;;;;;;19.21;71.48;100717.44;1559415;91;21629;-80
2022/09/22 12:51:31;;;;;;;4.33;2.70;;;;;;;19.29;71.02;100715.84;1581740;89;21129;-81
2022/09/22 12:54:29;;;;;;;3.30;2.40;;;;;;;19.34;70.89;100713.55;1608479;89;21586;-81